Terminal Aerodrome Forecast
Issued by NWS

Home | Current Version | Previous Version | Text Only | Print | Product List | Glossary On
Versions: 1 2 3 4 5 6 7 8 9 10 11 12 13 14 15 16 17 18 19
000
FTUS43 KMQT 251100
TAFIWD
TAF
KIWD 251137Z 2512/2612 18007KT P6SM BKN070
      TEMPO 2512/2516 P6SM -SHRA BKN050
     FM252100 20010KT P6SM -SHRA BKN035
     FM260000 19005KT P6SM -SHRA BKN025
      AMD NOT SKED=

USA.gov is the U.S. government's official web portal to all federal, state and local government web resources and services.